sensor_id;sensor_type;location;lat;lon;timestamp;temperature;humidity
32476;DHT22;18929;48.008;10.882;2023-11-21T00:02:00;9.60;99.90
32476;DHT22;18929;48.008;10.882;2023-11-21T00:04:27;9.60;99.90
32476;DHT22;18929;48.008;10.882;2023-11-21T00:06:54;9.70;99.90
32476;DHT22;18929;48.008;10.882;2023-11-21T00:09:21;9.60;99.90
32476;DHT22;18929;48.008;10.882;2023-11-21T00:11:48;9.80;99.90
32476;DHT22;18929;48.008;10.882;2023-11-21T00:14:15;9.80;99.90
32476;DHT22;18929;48.008;10.882;2023-11-21T00:16:50;10.20;99.90
32476;DHT22;18929;48.008;10.882;2023-11-21T00:19:17;10.10;99.90
32476;DHT22;18929;48.008;10.882;2023-11-21T00:21:44;10.10;99.90
32476;DHT22;18929;48.008;10.882;2023-11-21T00:24:11;10.40;99.90
32476;DHT22;18929;48.008;10.882;2023-11-21T00:26:39;9.90;99.90
32476;DHT22;18929;48.008;10.882;2023-11-21T00:29:06;9.80;99.90
32476;DHT22;18929;48.008;10.882;2023-11-21T00:31:33;10.10;99.90
32476;DHT22;18929;48.008;10.882;2023-11-21T00:34:03;10.10;99.90
32476;DHT22;18929;48.008;10.882;2023-11-21T00:36:30;10.10;99.90
32476;DHT22;18929;48.008;10.882;2023-11-21T00:38:57;10.20;99.90
32476;DHT22;18929;48.008;10.882;2023-11-21T00:41:24;10.20;99.90
32476;DHT22;18929;48.008;10.882;2023-11-21T00:46:24;10.10;99.90
32476;DHT22;18929;48.008;10.882;2023-11-21T00:48:52;10.00;99.90
32476;DHT22;18929;48.008;10.882;2023-11-21T00:51:21;10.00;99.90
32476;DHT22;18929;48.008;10.882;2023-11-21T00:53:48;10.00;99.90
32476;DHT22;18929;48.008;10.882;2023-11-21T00:56:15;9.90;99.90
32476;DHT22;18929;48.008;10.882;2023-11-21T00:58:42;10.00;99.90
32476;DHT22;18929;48.008;10.882;2023-11-21T01:01:12;10.00;99.90
32476;DHT22;18929;48.008;10.882;2023-11-21T01:03:39;9.80;99.90
32476;DHT22;18929;48.008;10.882;2023-11-21T01:06:06;9.90;99.90
32476;DHT22;18929;48.008;10.882;2023-11-21T01:08:42;10.00;99.90
32476;DHT22;18929;48.008;10.882;2023-11-21T01:11:09;10.00;99.90
32476;DHT22;18929;48.008;10.882;2023-11-21T01:13:38;9.80;99.90
32476;DHT22;18929;48.008;10.882;2023-11-21T01:16:05;9.40;99.90
32476;DHT22;18929;48.008;10.882;2023-11-21T01:18:37;9.30;99.90
32476;DHT22;18929;48.008;10.882;2023-11-21T01:21:04;8.90;99.90
32476;DHT22;18929;48.008;10.882;2023-11-21T01:23:31;8.70;99.90
32476;DHT22;18929;48.008;10.882;2023-11-21T01:26:00;8.90;99.90
32476;DHT22;18929;48.008;10.882;2023-11-21T01:28:26;8.90;99.90
32476;DHT22;18929;48.008;10.882;2023-11-21T01:30:53;9.00;99.90
32476;DHT22;18929;48.008;10.882;2023-11-21T01:33:22;8.70;99.90
32476;DHT22;18929;48.008;10.882;2023-11-21T01:35:53;8.80;99.90
32476;DHT22;18929;48.008;10.882;2023-11-21T01:38:23;8.90;99.90
32476;DHT22;18929;48.008;10.882;2023-11-21T01:40:49;8.70;99.90
32476;DHT22;18929;48.008;10.882;2023-11-21T01:43:19;8.60;99.90
32476;DHT22;18929;48.008;10.882;2023-11-21T01:46:02;8.80;99.90
32476;DHT22;18929;48.008;10.882;2023-11-21T01:48:45;8.70;99.90
32476;DHT22;18929;48.008;10.882;2023-11-21T01:51:12;8.70;99.90
32476;DHT22;18929;48.008;10.882;2023-11-21T01:53:39;8.60;99.90
32476;DHT22;18929;48.008;10.882;2023-11-21T01:56:06;8.60;99.90
32476;DHT22;18929;48.008;10.882;2023-11-21T01:58:36;8.60;99.90
32476;DHT22;18929;48.008;10.882;2023-11-21T02:01:03;8.40;99.90
32476;DHT22;18929;48.008;10.882;2023-11-21T02:03:38;8.60;99.90
32476;DHT22;18929;48.008;10.882;2023-11-21T02:06:05;8.50;99.90
32476;DHT22;18929;48.008;10.882;2023-11-21T02:08:32;8.60;99.90
32476;DHT22;18929;48.008;10.882;2023-11-21T02:10:59;8.60;99.90
32476;DHT22;18929;48.008;10.882;2023-11-21T02:13:29;8.40;99.90
32476;DHT22;18929;48.008;10.882;2023-11-21T02:15:57;8.40;99.90
32476;DHT22;18929;48.008;10.882;2023-11-21T02:18:24;8.10;99.90
32476;DHT22;18929;48.008;10.882;2023-11-21T02:20:51;8.40;99.90
32476;DHT22;18929;48.008;10.882;2023-11-21T02:23:19;8.40;99.90
32476;DHT22;18929;48.008;10.882;2023-11-21T02:25:46;8.20;99.90
32476;DHT22;18929;48.008;10.882;2023-11-21T02:28:12;8.30;99.90
32476;DHT22;18929;48.008;10.882;2023-11-21T02:30:41;8.10;99.90
32476;DHT22;18929;48.008;10.882;2023-11-21T02:33:08;8.40;99.90
32476;DHT22;18929;48.008;10.882;2023-11-21T02:35:34;8.40;99.90
32476;DHT22;18929;48.008;10.882;2023-11-21T02:38:01;8.50;99.90
32476;DHT22;18929;48.008;10.882;2023-11-21T02:40:29;8.60;99.90
32476;DHT22;18929;48.008;10.882;2023-11-21T02:42:56;8.70;99.90
32476;DHT22;18929;48.008;10.882;2023-11-21T02:45:26;8.70;99.90
32476;DHT22;18929;48.008;10.882;2023-11-21T02:47:52;8.40;99.90
32476;DHT22;18929;48.008;10.882;2023-11-21T02:50:22;8.50;99.90
32476;DHT22;18929;48.008;10.882;2023-11-21T02:52:49;8.50;99.90
32476;DHT22;18929;48.008;10.882;2023-11-21T02:58:01;8.30;99.90
32476;DHT22;18929;48.008;10.882;2023-11-21T03:00:29;8.40;99.90
32476;DHT22;18929;48.008;10.882;2023-11-21T03:02:55;8.60;99.90
32476;DHT22;18929;48.008;10.882;2023-11-21T03:05:22;8.50;99.90
32476;DHT22;18929;48.008;10.882;2023-11-21T03:07:49;8.60;99.90
32476;DHT22;18929;48.008;10.882;2023-11-21T03:10:16;8.70;99.90
32476;DHT22;18929;48.008;10.882;2023-11-21T03:12:43;8.60;99.90
32476;DHT22;18929;48.008;10.882;2023-11-21T03:15:11;8.50;99.90
32476;DHT22;18929;48.008;10.882;2023-11-21T03:17:38;8.50;99.90
32476;DHT22;18929;48.008;10.882;2023-11-21T03:20:05;8.90;99.90
32476;DHT22;18929;48.008;10.882;2023-11-21T03:22:36;8.80;99.90
32476;DHT22;18929;48.008;10.882;2023-11-21T03:25:03;9.00;99.90
32476;DHT22;18929;48.008;10.882;2023-11-21T03:27:30;9.20;99.90
32476;DHT22;18929;48.008;10.882;2023-11-21T03:29:57;9.30;99.90
32476;DHT22;18929;48.008;10.882;2023-11-21T03:32:25;9.40;99.90
32476;DHT22;18929;48.008;10.882;2023-11-21T03:34:56;9.50;99.90
32476;DHT22;18929;48.008;10.882;2023-11-21T03:37:23;9.60;99.90
32476;DHT22;18929;48.008;10.882;2023-11-21T03:39:50;9.30;99.90
32476;DHT22;18929;48.008;10.882;2023-11-21T03:42:16;8.90;99.90
32476;DHT22;18929;48.008;10.882;2023-11-21T03:47:14;8.50;99.90
32476;DHT22;18929;48.008;10.882;2023-11-21T03:49:43;8.50;99.90
32476;DHT22;18929;48.008;10.882;2023-11-21T03:52:09;8.50;99.90
32476;DHT22;18929;48.008;10.882;2023-11-21T03:54:36;8.40;99.90
32476;DHT22;18929;48.008;10.882;2023-11-21T03:57:03;8.20;99.90
32476;DHT22;18929;48.008;10.882;2023-11-21T03:59:30;8.30;99.90
32476;DHT22;18929;48.008;10.882;2023-11-21T04:01:57;8.20;99.90
32476;DHT22;18929;48.008;10.882;2023-11-21T04:04:24;8.20;99.90
32476;DHT22;18929;48.008;10.882;2023-11-21T04:06:52;8.30;99.90
32476;DHT22;18929;48.008;10.882;2023-11-21T04:09:19;8.50;99.90
32476;DHT22;18929;48.008;10.882;2023-11-21T04:11:45;8.60;99.90
32476;DHT22;18929;48.008;10.882;2023-11-21T04:14:13;8.50;99.90
32476;DHT22;18929;48.008;10.882;2023-11-21T04:16:40;8.40;99.90
32476;DHT22;18929;48.008;10.882;2023-11-21T04:19:07;8.60;99.90
32476;DHT22;18929;48.008;10.882;2023-11-21T04:21:34;8.80;99.90
32476;DHT22;18929;48.008;10.882;2023-11-21T04:24:03;8.90;99.90
32476;DHT22;18929;48.008;10.882;2023-11-21T04:26:30;8.70;99.90
32476;DHT22;18929;48.008;10.882;2023-11-21T04:28:57;8.70;99.90
32476;DHT22;18929;48.008;10.882;2023-11-21T04:31:24;8.80;99.90
32476;DHT22;18929;48.008;10.882;2023-11-21T04:33:50;8.70;99.90
32476;DHT22;18929;48.008;10.882;2023-11-21T04:36:17;8.70;99.90
32476;DHT22;18929;48.008;10.882;2023-11-21T04:38:44;8.70;99.90
32476;DHT22;18929;48.008;10.882;2023-11-21T04:41:12;8.70;99.90
32476;DHT22;18929;48.008;10.882;2023-11-21T04:43:39;8.50;99.90
32476;DHT22;18929;48.008;10.882;2023-11-21T04:46:07;8.70;99.90
32476;DHT22;18929;48.008;10.882;2023-11-21T04:48:34;8.60;99.90
32476;DHT22;18929;48.008;10.882;2023-11-21T04:51:01;8.50;99.90
32476;DHT22;18929;48.008;10.882;2023-11-21T04:53:29;8.70;99.90
32476;DHT22;18929;48.008;10.882;2023-11-21T04:55:56;8.60;99.90
32476;DHT22;18929;48.008;10.882;2023-11-21T04:58:25;8.50;99.90
32476;DHT22;18929;48.008;10.882;2023-11-21T05:00:52;8.80;99.90
32476;DHT22;18929;48.008;10.882;2023-11-21T05:03:19;8.80;99.90
32476;DHT22;18929;48.008;10.882;2023-11-21T05:06:04;8.80;99.90
32476;DHT22;18929;48.008;10.882;2023-11-21T05:08:31;8.80;99.90
32476;DHT22;18929;48.008;10.882;2023-11-21T05:10:59;8.10;99.90
32476;DHT22;18929;48.008;10.882;2023-11-21T05:13:27;8.40;99.90
32476;DHT22;18929;48.008;10.882;2023-11-21T05:15:54;8.20;99.90
32476;DHT22;18929;48.008;10.882;2023-11-21T05:18:19;8.40;99.90
32476;DHT22;18929;48.008;10.882;2023-11-21T05:20:46;8.50;99.90
32476;DHT22;18929;48.008;10.882;2023-11-21T05:26:05;8.50;99.90
32476;DHT22;18929;48.008;10.882;2023-11-21T05:28:34;8.60;99.90
32476;DHT22;18929;48.008;10.882;2023-11-21T05:31:03;8.60;99.90
32476;DHT22;18929;48.008;10.882;2023-11-21T05:36:13;8.50;99.90
32476;DHT22;18929;48.008;10.882;2023-11-21T05:38:40;8.50;99.90
32476;DHT22;18929;48.008;10.882;2023-11-21T05:41:07;8.30;99.90
32476;DHT22;18929;48.008;10.882;2023-11-21T05:43:37;8.20;99.90
32476;DHT22;18929;48.008;10.882;2023-11-21T05:46:05;8.10;99.90
32476;DHT22;18929;48.008;10.882;2023-11-21T05:48:32;8.10;99.90
32476;DHT22;18929;48.008;10.882;2023-11-21T05:50:59;8.10;99.90
32476;DHT22;18929;48.008;10.882;2023-11-21T05:53:27;8.00;99.90
32476;DHT22;18929;48.008;10.882;2023-11-21T05:55:54;8.20;99.90
32476;DHT22;18929;48.008;10.882;2023-11-21T05:58:20;8.20;99.90
32476;DHT22;18929;48.008;10.882;2023-11-21T06:00:49;8.10;99.90
32476;DHT22;18929;48.008;10.882;2023-11-21T06:03:15;8.40;99.90
32476;DHT22;18929;48.008;10.882;2023-11-21T06:05:42;8.70;99.90
32476;DHT22;18929;48.008;10.882;2023-11-21T06:08:10;8.70;99.90
32476;DHT22;18929;48.008;10.882;2023-11-21T06:10:36;8.70;99.90
32476;DHT22;18929;48.008;10.882;2023-11-21T06:13:04;8.60;99.90
32476;DHT22;18929;48.008;10.882;2023-11-21T06:15:32;8.50;99.90
32476;DHT22;18929;48.008;10.882;2023-11-21T06:18:01;8.40;99.90
32476;DHT22;18929;48.008;10.882;2023-11-21T06:20:28;8.50;99.90
32476;DHT22;18929;48.008;10.882;2023-11-21T06:22:55;8.40;99.90
32476;DHT22;18929;48.008;10.882;2023-11-21T06:25:21;8.50;99.90
32476;DHT22;18929;48.008;10.882;2023-11-21T06:27:48;8.60;99.90
32476;DHT22;18929;48.008;10.882;2023-11-21T06:30:15;8.80;99.90
32476;DHT22;18929;48.008;10.882;2023-11-21T06:32:44;8.80;99.90
32476;DHT22;18929;48.008;10.882;2023-11-21T06:35:13;8.50;99.90
32476;DHT22;18929;48.008;10.882;2023-11-21T06:37:40;8.40;99.90
32476;DHT22;18929;48.008;10.882;2023-11-21T06:40:12;8.70;99.90
32476;DHT22;18929;48.008;10.882;2023-11-21T06:42:40;8.50;99.90
32476;DHT22;18929;48.008;10.882;2023-11-21T06:45:07;8.50;99.90
32476;DHT22;18929;48.008;10.882;2023-11-21T06:47:42;8.80;99.90
32476;DHT22;18929;48.008;10.882;2023-11-21T06:52:56;8.70;99.90
32476;DHT22;18929;48.008;10.882;2023-11-21T06:55:23;8.60;99.90
32476;DHT22;18929;48.008;10.882;2023-11-21T06:57:50;8.50;99.90
32476;DHT22;18929;48.008;10.882;2023-11-21T07:00:17;8.50;99.90
32476;DHT22;18929;48.008;10.882;2023-11-21T07:02:44;8.70;99.90
32476;DHT22;18929;48.008;10.882;2023-11-21T07:05:11;8.90;99.90
32476;DHT22;18929;48.008;10.882;2023-11-21T07:10:30;8.40;99.90
32476;DHT22;18929;48.008;10.882;2023-11-21T07:12:56;8.10;99.90
32476;DHT22;18929;48.008;10.882;2023-11-21T07:15:23;8.20;99.90
32476;DHT22;18929;48.008;10.882;2023-11-21T07:17:51;8.40;99.90
32476;DHT22;18929;48.008;10.882;2023-11-21T07:20:19;8.60;99.90
32476;DHT22;18929;48.008;10.882;2023-11-21T07:22:46;8.50;99.90
32476;DHT22;18929;48.008;10.882;2023-11-21T07:25:13;8.60;99.90
32476;DHT22;18929;48.008;10.882;2023-11-21T07:27:42;8.40;99.90
32476;DHT22;18929;48.008;10.882;2023-11-21T07:30:09;8.20;99.90
32476;DHT22;18929;48.008;10.882;2023-11-21T07:32:36;8.10;99.90
32476;DHT22;18929;48.008;10.882;2023-11-21T07:35:05;8.00;99.90
32476;DHT22;18929;48.008;10.882;2023-11-21T07:37:33;8.10;99.90
32476;DHT22;18929;48.008;10.882;2023-11-21T07:40:08;8.30;99.90
32476;DHT22;18929;48.008;10.882;2023-11-21T07:42:37;8.40;99.90
32476;DHT22;18929;48.008;10.882;2023-11-21T07:45:06;8.70;99.90
32476;DHT22;18929;48.008;10.882;2023-11-21T07:47:34;8.70;99.90
32476;DHT22;18929;48.008;10.882;2023-11-21T07:52:28;8.20;99.90
32476;DHT22;18929;48.008;10.882;2023-11-21T07:54:55;8.40;99.90
32476;DHT22;18929;48.008;10.882;2023-11-21T07:57:22;8.40;99.90
32476;DHT22;18929;48.008;10.882;2023-11-21T07:59:49;8.60;99.90
32476;DHT22;18929;48.008;10.882;2023-11-21T08:02:20;8.70;99.90
32476;DHT22;18929;48.008;10.882;2023-11-21T08:04:47;8.70;99.90
32476;DHT22;18929;48.008;10.882;2023-11-21T08:07:15;8.40;99.90
32476;DHT22;18929;48.008;10.882;2023-11-21T08:09:42;8.30;99.90
32476;DHT22;18929;48.008;10.882;2023-11-21T08:12:18;8.50;99.90
32476;DHT22;18929;48.008;10.882;2023-11-21T08:14:45;8.30;99.90
32476;DHT22;18929;48.008;10.882;2023-11-21T08:17:12;8.30;99.90
32476;DHT22;18929;48.008;10.882;2023-11-21T08:19:41;8.20;99.90
32476;DHT22;18929;48.008;10.882;2023-11-21T08:22:07;8.30;99.90
32476;DHT22;18929;48.008;10.882;2023-11-21T08:24:34;8.30;99.90
32476;DHT22;18929;48.008;10.882;2023-11-21T08:27:01;8.10;99.90
32476;DHT22;18929;48.008;10.882;2023-11-21T08:29:29;8.20;99.90
32476;DHT22;18929;48.008;10.882;2023-11-21T08:31:57;8.20;99.90
32476;DHT22;18929;48.008;10.882;2023-11-21T08:34:25;8.10;99.90
32476;DHT22;18929;48.008;10.882;2023-11-21T08:36:53;8.10;99.90
32476;DHT22;18929;48.008;10.882;2023-11-21T08:39:21;8.30;99.90
32476;DHT22;18929;48.008;10.882;2023-11-21T08:41:49;8.20;99.90
32476;DHT22;18929;48.008;10.882;2023-11-21T08:47:19;8.30;99.90
32476;DHT22;18929;48.008;10.882;2023-11-21T08:49:46;8.10;99.90
32476;DHT22;18929;48.008;10.882;2023-11-21T08:52:15;8.20;99.90
32476;DHT22;18929;48.008;10.882;2023-11-21T08:54:42;8.20;99.90
32476;DHT22;18929;48.008;10.882;2023-11-21T08:59:41;8.70;99.90
32476;DHT22;18929;48.008;10.882;2023-11-21T09:02:07;8.90;99.90
32476;DHT22;18929;48.008;10.882;2023-11-21T09:04:34;8.50;99.90
32476;DHT22;18929;48.008;10.882;2023-11-21T09:07:08;8.30;99.90
32476;DHT22;18929;48.008;10.882;2023-11-21T09:09:37;8.30;99.90
32476;DHT22;18929;48.008;10.882;2023-11-21T09:12:04;8.60;99.90
32476;DHT22;18929;48.008;10.882;2023-11-21T09:14:46;8.30;99.90
32476;DHT22;18929;48.008;10.882;2023-11-21T09:17:13;8.10;99.90
32476;DHT22;18929;48.008;10.882;2023-11-21T09:19:40;8.10;99.90
32476;DHT22;18929;48.008;10.882;2023-11-21T09:22:07;8.00;99.90
32476;DHT22;18929;48.008;10.882;2023-11-21T09:24:33;8.00;99.90
32476;DHT22;18929;48.008;10.882;2023-11-21T09:27:02;8.30;99.90
32476;DHT22;18929;48.008;10.882;2023-11-21T09:29:30;8.60;99.90
32476;DHT22;18929;48.008;10.882;2023-11-21T09:31:57;8.30;99.90
32476;DHT22;18929;48.008;10.882;2023-11-21T09:34:24;8.40;99.90
32476;DHT22;18929;48.008;10.882;2023-11-21T09:36:52;8.10;99.90
32476;DHT22;18929;48.008;10.882;2023-11-21T09:39:19;8.30;99.90
32476;DHT22;18929;48.008;10.882;2023-11-21T09:41:49;8.50;99.90
32476;DHT22;18929;48.008;10.882;2023-11-21T09:44:18;8.30;99.90
32476;DHT22;18929;48.008;10.882;2023-11-21T09:46:48;8.10;99.90
32476;DHT22;18929;48.008;10.882;2023-11-21T09:49:15;8.20;99.90
32476;DHT22;18929;48.008;10.882;2023-11-21T09:51:45;8.30;99.90
32476;DHT22;18929;48.008;10.882;2023-11-21T09:54:13;8.10;99.90
32476;DHT22;18929;48.008;10.882;2023-11-21T09:56:41;8.40;99.90
32476;DHT22;18929;48.008;10.882;2023-11-21T09:59:10;8.40;99.90
32476;DHT22;18929;48.008;10.882;2023-11-21T10:01:41;8.80;99.90
32476;DHT22;18929;48.008;10.882;2023-11-21T10:04:08;8.50;99.90
32476;DHT22;18929;48.008;10.882;2023-11-21T10:06:38;8.60;99.90
32476;DHT22;18929;48.008;10.882;2023-11-21T10:09:05;8.40;99.90
32476;DHT22;18929;48.008;10.882;2023-11-21T10:11:38;8.50;99.90
32476;DHT22;18929;48.008;10.882;2023-11-21T10:16:41;8.50;99.90
32476;DHT22;18929;48.008;10.882;2023-11-21T10:19:09;8.80;99.90
32476;DHT22;18929;48.008;10.882;2023-11-21T10:21:37;8.70;99.90
32476;DHT22;18929;48.008;10.882;2023-11-21T10:24:04;8.80;99.90
32476;DHT22;18929;48.008;10.882;2023-11-21T10:26:31;8.90;99.90
32476;DHT22;18929;48.008;10.882;2023-11-21T10:28:59;9.00;99.90
32476;DHT22;18929;48.008;10.882;2023-11-21T10:31:40;8.60;99.90
32476;DHT22;18929;48.008;10.882;2023-11-21T10:34:14;8.30;99.90
32476;DHT22;18929;48.008;10.882;2023-11-21T10:36:41;8.50;99.90
32476;DHT22;18929;48.008;10.882;2023-11-21T10:39:08;8.70;99.90
32476;DHT22;18929;48.008;10.882;2023-11-21T10:41:35;8.90;99.90
32476;DHT22;18929;48.008;10.882;2023-11-21T10:44:02;8.90;99.90
32476;DHT22;18929;48.008;10.882;2023-11-21T10:46:32;8.90;99.90
32476;DHT22;18929;48.008;10.882;2023-11-21T10:49:00;8.80;99.90
32476;DHT22;18929;48.008;10.882;2023-11-21T10:51:28;8.60;99.90
32476;DHT22;18929;48.008;10.882;2023-11-21T10:53:55;8.60;99.90
32476;DHT22;18929;48.008;10.882;2023-11-21T10:56:23;8.80;99.90
32476;DHT22;18929;48.008;10.882;2023-11-21T10:58:50;8.80;99.90
32476;DHT22;18929;48.008;10.882;2023-11-21T11:01:17;8.90;99.90
32476;DHT22;18929;48.008;10.882;2023-11-21T11:03:46;9.20;99.90
32476;DHT22;18929;48.008;10.882;2023-11-21T11:06:18;9.10;99.90
32476;DHT22;18929;48.008;10.882;2023-11-21T11:08:45;9.00;99.90
32476;DHT22;18929;48.008;10.882;2023-11-21T11:13:51;8.90;99.90
32476;DHT22;18929;48.008;10.882;2023-11-21T11:16:18;9.20;99.90
32476;DHT22;18929;48.008;10.882;2023-11-21T11:18:45;9.30;99.90
32476;DHT22;18929;48.008;10.882;2023-11-21T11:21:16;9.30;99.90
32476;DHT22;18929;48.008;10.882;2023-11-21T11:26:37;9.40;99.90
32476;DHT22;18929;48.008;10.882;2023-11-21T11:29:08;9.30;99.90
32476;DHT22;18929;48.008;10.882;2023-11-21T11:31:45;9.60;99.90
32476;DHT22;18929;48.008;10.882;2023-11-21T11:36:48;9.40;99.90
32476;DHT22;18929;48.008;10.882;2023-11-21T11:41:59;9.50;99.90
32476;DHT22;18929;48.008;10.882;2023-11-21T11:44:48;9.40;99.90
32476;DHT22;18929;48.008;10.882;2023-11-21T11:47:18;9.60;99.90
32476;DHT22;18929;48.008;10.882;2023-11-21T11:52:36;9.40;99.90
32476;DHT22;18929;48.008;10.882;2023-11-21T11:55:06;9.30;99.90
32476;DHT22;18929;48.008;10.882;2023-11-21T11:57:36;9.20;99.90
32476;DHT22;18929;48.008;10.882;2023-11-21T12:00:11;9.40;99.90
32476;DHT22;18929;48.008;10.882;2023-11-21T12:05:25;9.20;99.90
32476;DHT22;18929;48.008;10.882;2023-11-21T12:07:53;8.90;99.90
32476;DHT22;18929;48.008;10.882;2023-11-21T12:10:21;9.10;99.90
32476;DHT22;18929;48.008;10.882;2023-11-21T12:12:52;9.30;99.90
32476;DHT22;18929;48.008;10.882;2023-11-21T12:15:19;9.60;99.90
32476;DHT22;18929;48.008;10.882;2023-11-21T12:17:47;9.40;99.90
32476;DHT22;18929;48.008;10.882;2023-11-21T12:20:14;9.50;99.90
32476;DHT22;18929;48.008;10.882;2023-11-21T12:22:43;9.50;99.90
32476;DHT22;18929;48.008;10.882;2023-11-21T12:25:22;9.10;99.90
32476;DHT22;18929;48.008;10.882;2023-11-21T12:27:50;9.20;99.90
32476;DHT22;18929;48.008;10.882;2023-11-21T12:30:19;9.10;99.90
32476;DHT22;18929;48.008;10.882;2023-11-21T12:32:48;9.40;99.90
32476;DHT22;18929;48.008;10.882;2023-11-21T12:35:14;9.50;99.90
32476;DHT22;18929;48.008;10.882;2023-11-21T12:37:42;9.70;99.90
32476;DHT22;18929;48.008;10.882;2023-11-21T12:40:09;9.30;99.90
32476;DHT22;18929;48.008;10.882;2023-11-21T12:42:39;9.80;99.90
32476;DHT22;18929;48.008;10.882;2023-11-21T12:45:08;10.10;99.90
32476;DHT22;18929;48.008;10.882;2023-11-21T12:47:41;10.50;99.90
32476;DHT22;18929;48.008;10.882;2023-11-21T12:52:54;10.60;99.90
32476;DHT22;18929;48.008;10.882;2023-11-21T12:55:24;10.50;99.90
32476;DHT22;18929;48.008;10.882;2023-11-21T12:57:51;10.40;99.90
32476;DHT22;18929;48.008;10.882;2023-11-21T13:00:20;10.60;99.90
32476;DHT22;18929;48.008;10.882;2023-11-21T13:02:55;10.50;99.90
32476;DHT22;18929;48.008;10.882;2023-11-21T13:05:24;10.30;99.90
32476;DHT22;18929;48.008;10.882;2023-11-21T13:07:51;10.00;99.90
32476;DHT22;18929;48.008;10.882;2023-11-21T13:10:21;9.40;99.90
32476;DHT22;18929;48.008;10.882;2023-11-21T13:12:51;9.30;99.90
32476;DHT22;18929;48.008;10.882;2023-11-21T13:15:19;9.30;99.90
32476;DHT22;18929;48.008;10.882;2023-11-21T13:17:45;9.30;99.90
32476;DHT22;18929;48.008;10.882;2023-11-21T13:20:14;9.30;99.90
32476;DHT22;18929;48.008;10.882;2023-11-21T13:22:48;9.30;99.90
32476;DHT22;18929;48.008;10.882;2023-11-21T13:25:16;9.20;99.90
32476;DHT22;18929;48.008;10.882;2023-11-21T13:30:48;9.60;99.90
32476;DHT22;18929;48.008;10.882;2023-11-21T13:33:17;9.70;99.90
32476;DHT22;18929;48.008;10.882;2023-11-21T13:35:48;9.80;99.90
32476;DHT22;18929;48.008;10.882;2023-11-21T13:38:17;9.70;99.90
32476;DHT22;18929;48.008;10.882;2023-11-21T13:40:49;9.80;99.90
32476;DHT22;18929;48.008;10.882;2023-11-21T13:43:19;10.00;99.90
32476;DHT22;18929;48.008;10.882;2023-11-21T13:45:47;10.20;99.90
32476;DHT22;18929;48.008;10.882;2023-11-21T13:48:16;10.40;99.90
32476;DHT22;18929;48.008;10.882;2023-11-21T13:50:52;10.30;99.90
32476;DHT22;18929;48.008;10.882;2023-11-21T13:53:24;10.60;99.90
32476;DHT22;18929;48.008;10.882;2023-11-21T13:55:51;10.60;99.90
32476;DHT22;18929;48.008;10.882;2023-11-21T13:58:20;10.30;99.90
32476;DHT22;18929;48.008;10.882;2023-11-21T14:00:51;10.20;99.90
32476;DHT22;18929;48.008;10.882;2023-11-21T14:03:31;10.20;99.90
32476;DHT22;18929;48.008;10.882;2023-11-21T14:06:06;10.20;99.90
32476;DHT22;18929;48.008;10.882;2023-11-21T14:08:39;10.20;99.90
32476;DHT22;18929;48.008;10.882;2023-11-21T14:11:06;10.40;99.90
32476;DHT22;18929;48.008;10.882;2023-11-21T14:13:36;10.50;99.90
32476;DHT22;18929;48.008;10.882;2023-11-21T14:16:05;10.70;99.90
32476;DHT22;18929;48.008;10.882;2023-11-21T14:18:32;10.80;99.90
32476;DHT22;18929;48.008;10.882;2023-11-21T14:21:04;10.80;99.90
32476;DHT22;18929;48.008;10.882;2023-11-21T14:23:32;10.90;99.90
32476;DHT22;18929;48.008;10.882;2023-11-21T14:26:01;10.60;99.90
32476;DHT22;18929;48.008;10.882;2023-11-21T14:28:28;10.40;99.90
32476;DHT22;18929;48.008;10.882;2023-11-21T14:30:54;10.20;99.90
32476;DHT22;18929;48.008;10.882;2023-11-21T14:33:21;10.10;99.90
32476;DHT22;18929;48.008;10.882;2023-11-21T14:35:48;10.10;99.90
32476;DHT22;18929;48.008;10.882;2023-11-21T14:38:15;10.20;99.90
32476;DHT22;18929;48.008;10.882;2023-11-21T14:40:44;10.20;99.90
32476;DHT22;18929;48.008;10.882;2023-11-21T14:43:13;10.30;99.90
32476;DHT22;18929;48.008;10.882;2023-11-21T14:45:39;10.20;99.90
32476;DHT22;18929;48.008;10.882;2023-11-21T14:48:06;10.00;99.90
32476;DHT22;18929;48.008;10.882;2023-11-21T14:50:41;10.00;99.90
32476;DHT22;18929;48.008;10.882;2023-11-21T14:53:17;10.10;99.90
32476;DHT22;18929;48.008;10.882;2023-11-21T14:55:57;9.90;99.90
32476;DHT22;18929;48.008;10.882;2023-11-21T14:58:25;10.10;99.90
32476;DHT22;18929;48.008;10.882;2023-11-21T15:00:52;10.00;99.90
32476;DHT22;18929;48.008;10.882;2023-11-21T15:03:23;8.40;99.90
32476;DHT22;18929;48.008;10.882;2023-11-21T15:06:08;8.50;99.90
32476;DHT22;18929;48.008;10.882;2023-11-21T15:08:56;8.60;99.90
32476;DHT22;18929;48.008;10.882;2023-11-21T15:14:36;8.70;99.90
32476;DHT22;18929;48.008;10.882;2023-11-21T15:17:02;8.60;99.90
32476;DHT22;18929;48.008;10.882;2023-11-21T15:19:30;8.50;99.90
32476;DHT22;18929;48.008;10.882;2023-11-21T15:21:57;8.70;99.90
32476;DHT22;18929;48.008;10.882;2023-11-21T15:24:24;9.00;99.90
32476;DHT22;18929;48.008;10.882;2023-11-21T15:26:51;9.20;99.90
32476;DHT22;18929;48.008;10.882;2023-11-21T15:29:18;9.40;99.90
32476;DHT22;18929;48.008;10.882;2023-11-21T15:31:48;9.60;99.90
32476;DHT22;18929;48.008;10.882;2023-11-21T15:34:15;10.00;99.90
32476;DHT22;18929;48.008;10.882;2023-11-21T15:36:42;10.00;99.90
32476;DHT22;18929;48.008;10.882;2023-11-21T15:39:09;9.00;99.90
32476;DHT22;18929;48.008;10.882;2023-11-21T15:41:37;9.20;99.90
32476;DHT22;18929;48.008;10.882;2023-11-21T15:44:05;9.70;99.90
32476;DHT22;18929;48.008;10.882;2023-11-21T15:46:33;9.80;99.90
32476;DHT22;18929;48.008;10.882;2023-11-21T15:49:02;10.00;99.90
32476;DHT22;18929;48.008;10.882;2023-11-21T15:51:39;10.10;99.90
32476;DHT22;18929;48.008;10.882;2023-11-21T15:54:09;9.90;99.90
32476;DHT22;18929;48.008;10.882;2023-11-21T15:56:36;10.00;99.90
32476;DHT22;18929;48.008;10.882;2023-11-21T15:59:04;10.00;99.90
32476;DHT22;18929;48.008;10.882;2023-11-21T16:01:32;9.90;99.90
32476;DHT22;18929;48.008;10.882;2023-11-21T16:04:00;9.80;99.90
32476;DHT22;18929;48.008;10.882;2023-11-21T16:06:30;9.70;99.90
32476;DHT22;18929;48.008;10.882;2023-11-21T16:08:57;9.70;99.90
32476;DHT22;18929;48.008;10.882;2023-11-21T16:11:25;9.90;99.90
32476;DHT22;18929;48.008;10.882;2023-11-21T16:13:51;10.10;99.90
32476;DHT22;18929;48.008;10.882;2023-11-21T16:16:20;10.00;99.90
32476;DHT22;18929;48.008;10.882;2023-11-21T16:18:47;9.70;99.90
32476;DHT22;18929;48.008;10.882;2023-11-21T16:21:14;9.70;99.90
32476;DHT22;18929;48.008;10.882;2023-11-21T16:23:42;9.80;99.90
32476;DHT22;18929;48.008;10.882;2023-11-21T16:26:09;9.80;99.90
32476;DHT22;18929;48.008;10.882;2023-11-21T16:28:37;9.90;99.90
32476;DHT22;18929;48.008;10.882;2023-11-21T16:31:04;10.10;99.90